Time;durP1;ratioP1;P1;durP2;ratioP2;P2;SDS_P1;SDS_P2;PMS_P1;PMS_P2;Temp;Humidity;BMP_temperature;BMP_pressure;BME280_temperature;BME280_humidity;BME280_pressure;Samples;Min_cycle;Max_cycle;Signal;HPM_P1;HPM_P2
2023/03/06 00:02:08;;;;;;;0.00;0.00;;;;;;;3.77;100.00;100714.59;10404188;28;20111;-77
2023/03/06 00:07:10;;;;;;;0.00;0.00;;;;;;;3.57;100.00;100707.63;10410252;28;20046;-77
2023/03/06 00:12:12;;;;;;;0.00;0.00;;;;;;;3.40;100.00;100709.31;10412658;28;20504;-78
2023/03/06 00:17:13;;;;;;;0.22;0.22;;;;;;;3.58;100.00;100711.94;10410928;28;20034;-77
2023/03/06 00:22:15;;;;;;;0.05;0.05;;;;;;;3.56;100.00;100709.31;10392721;28;20084;-77
2023/03/06 00:27:17;;;;;;;1.75;0.55;;;;;;;3.51;100.00;100694.59;10408751;28;20045;-77
2023/03/06 00:32:18;;;;;;;0.00;0.00;;;;;;;3.65;100.00;100689.38;10408880;28;20099;-77
2023/03/06 00:37:22;;;;;;;0.00;0.00;;;;;;;3.59;100.00;100685.66;10392178;28;20049;-77
2023/03/06 00:42:23;;;;;;;0.00;0.00;;;;;;;3.59;100.00;100678.88;10407831;28;20046;-77
2023/03/06 00:47:25;;;;;;;0.00;0.00;;;;;;;3.58;100.00;100682.22;10402374;28;20095;-77
2023/03/06 00:52:27;;;;;;;0.00;0.00;;;;;;;3.48;100.00;100675.78;10408184;28;20493;-77
2023/03/06 00:57:30;;;;;;;0.00;0.00;;;;;;;3.39;100.00;100665.13;10403389;28;20046;-77
2023/03/06 01:02:31;;;;;;;0.10;0.10;;;;;;;3.24;100.00;100659.28;10423124;28;20085;-77
2023/03/06 01:07:35;;;;;;;0.10;0.10;;;;;;;3.24;100.00;100664.38;10408088;28;20132;-77
2023/03/06 01:12:37;;;;;;;0.20;0.10;;;;;;;2.82;100.00;100655.41;10401807;28;20049;-77
2023/03/06 01:17:38;;;;;;;0.00;0.00;;;;;;;2.96;100.00;100640.00;10407794;28;20500;-77
2023/03/06 01:22:40;;;;;;;0.00;0.00;;;;;;;2.37;100.00;100624.16;10400683;28;20497;-77
2023/03/06 01:27:42;;;;;;;0.10;0.10;;;;;;;2.22;100.00;100599.66;10408411;28;20099;-77
2023/03/06 01:32:44;;;;;;;0.00;0.00;;;;;;;2.16;100.00;100573.06;10407700;28;20415;-77
2023/03/06 01:37:46;;;;;;;0.00;0.00;;;;;;;2.20;100.00;100550.41;10407255;28;20049;-76
2023/03/06 01:42:49;;;;;;;0.03;0.03;;;;;;;2.08;100.00;100539.59;10407366;28;20175;-76
2023/03/06 01:47:51;;;;;;;0.00;0.00;;;;;;;2.20;100.00;100540.22;10386898;28;20049;-77
2023/03/06 01:52:56;;;;;;;0.00;0.00;;;;;;;2.22;100.00;100525.09;10426363;28;20050;-77
2023/03/06 01:58:02;;;;;;;0.10;0.10;;;;;;;2.19;100.00;100513.09;10414719;28;20054;-77
2023/03/06 02:03:11;;;;;;;0.55;0.40;;;;;;;2.35;100.00;100491.00;10414606;28;20045;-76
2023/03/06 02:08:17;;;;;;;0.00;0.00;;;;;;;2.25;100.00;100497.28;10419592;28;20056;-77
2023/03/06 02:13:18;;;;;;;0.10;0.10;;;;;;;2.18;100.00;100479.94;10413789;28;20301;-76
2023/03/06 02:18:26;;;;;;;0.30;0.30;;;;;;;2.25;100.00;100478.63;10400077;28;20041;-76
2023/03/06 02:23:49;;;;;;;0.00;0.00;;;;;;;2.18;100.00;100485.94;10415653;28;20053;-76
2023/03/06 02:28:51;;;;;;;0.15;0.13;;;;;;;2.14;100.00;100489.09;10415358;28;20049;-76
2023/03/06 02:34:22;;;;;;;1.55;0.45;;;;;;;2.14;100.00;100486.53;10415291;28;20041;-76
2023/03/06 02:39:27;;;;;;;0.00;0.00;;;;;;;2.05;100.00;100478.41;10408789;28;20053;-77
2023/03/06 02:44:30;;;;;;;0.05;0.05;;;;;;;2.03;100.00;100454.63;10408823;28;20512;-76
2023/03/06 02:49:32;;;;;;;0.20;0.20;;;;;;;1.96;100.00;100453.41;10411114;28;20075;-77
2023/03/06 02:54:33;;;;;;;0.03;0.03;;;;;;;1.74;100.00;100451.38;10410842;28;20103;-75
2023/03/06 02:59:35;;;;;;;0.30;0.30;;;;;;;1.71;100.00;100435.97;10409887;28;20518;-77
2023/03/06 03:04:39;;;;;;;0.10;0.10;;;;;;;1.69;100.00;100404.53;10410748;28;20057;-78
2023/03/06 03:09:41;;;;;;;0.25;0.20;;;;;;;1.85;100.00;100391.88;10411453;28;20132;-77
2023/03/06 03:14:42;;;;;;;0.30;0.30;;;;;;;1.76;100.00;100388.81;10421474;28;20049;-77
2023/03/06 03:19:46;;;;;;;0.50;0.50;;;;;;;1.86;100.00;100377.50;10409588;28;20054;-77
2023/03/06 03:24:48;;;;;;;1.13;0.90;;;;;;;1.87;100.00;100364.00;10394272;28;20386;-78
2023/03/06 03:29:50;;;;;;;0.05;0.05;;;;;;;1.86;100.00;100350.44;10409217;28;20061;-77
2023/03/06 03:34:54;;;;;;;0.00;0.00;;;;;;;1.91;100.00;100343.06;10414330;28;20047;-77
2023/03/06 03:39:58;;;;;;;0.45;0.45;;;;;;;1.99;100.00;100325.66;10403457;28;20052;-76
2023/03/06 03:45:00;;;;;;;0.55;0.55;;;;;;;1.96;100.00;100315.34;10409000;28;20132;-77
2023/03/06 03:50:03;;;;;;;0.55;0.55;;;;;;;1.95;100.00;100309.38;10385088;28;20099;-78
2023/03/06 03:55:05;;;;;;;0.00;0.00;;;;;;;2.02;100.00;100290.25;10408155;28;20107;-77
2023/03/06 04:00:10;;;;;;;0.10;0.10;;;;;;;2.05;100.00;100280.22;10408231;28;20041;-76
2023/03/06 04:05:23;;;;;;;0.35;0.35;;;;;;;2.15;100.00;100279.91;10406075;28;20116;-76
2023/03/06 04:10:25;;;;;;;0.43;0.43;;;;;;;2.25;100.00;100277.81;10413497;28;20524;-77
2023/03/06 04:15:28;;;;;;;0.20;0.20;;;;;;;2.03;100.00;100267.44;10405954;28;20053;-77
2023/03/06 04:20:30;;;;;;;2.22;1.20;;;;;;;2.28;100.00;100266.13;10417555;28;20049;-75
2023/03/06 04:25:33;;;;;;;0.38;0.38;;;;;;;2.41;100.00;100244.72;10409803;28;20053;-76
2023/03/06 04:30:38;;;;;;;0.00;0.00;;;;;;;2.48;100.00;100241.69;10411201;28;20069;-77
2023/03/06 04:35:40;;;;;;;0.45;0.32;;;;;;;2.40;100.00;100242.97;10407950;28;20053;-77
2023/03/06 04:40:48;;;;;;;0.20;0.20;;;;;;;2.49;100.00;100235.81;10409909;28;20041;-76
2023/03/06 04:45:50;;;;;;;0.88;0.63;;;;;;;2.49;100.00;100240.88;10423483;28;20049;-76
2023/03/06 04:50:52;;;;;;;0.00;0.00;;;;;;;2.54;100.00;100228.38;10409881;28;20049;-76
2023/03/06 04:55:53;;;;;;;0.17;0.17;;;;;;;2.52;100.00;100233.38;10385938;28;20451;-75
2023/03/06 05:00:55;;;;;;;0.80;0.75;;;;;;;2.61;100.00;100227.00;10411449;28;20083;-76
2023/03/06 05:05:57;;;;;;;0.00;0.00;;;;;;;2.63;100.00;100233.03;10415086;28;20067;-76
2023/03/06 05:11:00;;;;;;;0.43;0.30;;;;;;;2.51;100.00;100224.00;10409184;28;20042;-76
2023/03/06 05:16:03;;;;;;;0.38;0.35;;;;;;;2.76;100.00;100222.63;10423703;28;20049;-76
2023/03/06 05:21:09;;;;;;;0.30;0.30;;;;;;;2.54;100.00;100219.06;10403283;28;20551;-75
2023/03/06 05:26:13;;;;;;;0.00;0.00;;;;;;;2.74;100.00;100218.28;10411696;28;20076;-76
2023/03/06 05:31:15;;;;;;;0.10;0.10;;;;;;;2.83;100.00;100208.53;10406771;28;20037;-75
2023/03/06 05:36:16;;;;;;;0.38;0.38;;;;;;;2.68;100.00;100218.84;10414934;28;20045;-75
2023/03/06 05:41:18;;;;;;;0.22;0.20;;;;;;;2.49;100.00;100206.94;10415417;28;20073;-76
2023/03/06 05:46:20;;;;;;;0.10;0.10;;;;;;;2.74;100.00;100193.69;10408322;28;20840;-75
2023/03/06 05:51:22;;;;;;;0.52;0.52;;;;;;;2.65;100.00;100198.34;10407543;28;20496;-75
2023/03/06 05:56:23;;;;;;;0.10;0.10;;;;;;;2.85;100.00;100195.06;10410654;28;20135;-75
2023/03/06 06:01:27;;;;;;;0.10;0.10;;;;;;;2.81;100.00;100193.16;10399396;28;20038;-76
2023/03/06 06:06:28;;;;;;;0.10;0.10;;;;;;;2.64;100.00;100194.09;10412145;28;20052;-76
2023/03/06 06:11:30;;;;;;;0.70;0.20;;;;;;;2.56;100.00;100187.78;10415356;28;20452;-76
2023/03/06 06:16:32;;;;;;;1.50;0.80;;;;;;;2.67;100.00;100181.50;10417083;28;20046;-75
2023/03/06 06:21:33;;;;;;;0.03;0.03;;;;;;;2.60;100.00;100169.28;10421524;28;20038;-76
2023/03/06 06:26:35;;;;;;;0.25;0.25;;;;;;;2.45;100.00;100156.75;10410888;28;20415;-76
2023/03/06 06:31:38;;;;;;;0.00;0.00;;;;;;;2.24;100.00;100154.06;10415922;28;20058;-76
2023/03/06 06:36:40;;;;;;;0.10;0.10;;;;;;;2.24;100.00;100133.72;10398851;28;20099;-76
2023/03/06 06:41:43;;;;;;;5.82;1.35;;;;;;;2.27;100.00;100133.88;10397440;28;20608;-75
2023/03/06 06:47:05;;;;;;;0.70;0.68;;;;;;;2.44;100.00;100122.81;10419392;28;20069;-76
2023/03/06 06:52:25;;;;;;;0.30;0.20;;;;;;;2.67;100.00;100126.44;10413114;28;20516;-76
2023/03/06 06:57:27;;;;;;;0.73;0.65;;;;;;;2.85;100.00;100126.38;10398092;28;20062;-75
2023/03/06 07:02:28;;;;;;;0.00;0.00;;;;;;;3.09;100.00;100138.41;10397381;28;20401;-75
2023/03/06 07:07:33;;;;;;;0.40;0.40;;;;;;;3.03;100.00;100155.97;10402555;28;20144;-78
2023/03/06 07:12:35;;;;;;;0.08;0.08;;;;;;;3.11;100.00;100148.69;10414833;28;20046;-76
2023/03/06 07:17:39;;;;;;;0.20;0.20;;;;;;;3.23;100.00;100158.53;10396370;28;20080;-76
2023/03/06 07:22:41;;;;;;;0.10;0.10;;;;;;;3.10;100.00;100157.97;10404588;28;20054;-75
2023/03/06 07:27:53;;;;;;;0.38;0.38;;;;;;;3.17;100.00;100176.94;10404940;28;20054;-75
2023/03/06 07:32:56;;;;;;;0.77;0.52;;;;;;;3.17;100.00;100171.84;10406254;28;20064;-75
2023/03/06 07:38:00;;;;;;;0.20;0.20;;;;;;;3.42;100.00;100175.47;10416767;28;20045;-77
2023/03/06 07:43:02;;;;;;;0.73;0.68;;;;;;;3.17;100.00;100180.34;10396121;28;20091;-75
2023/03/06 07:48:23;;;;;;;0.00;0.00;;;;;;;3.40;100.00;100183.03;10401938;28;20132;-75
2023/03/06 07:53:26;;;;;;;0.20;0.20;;;;;;;3.32;100.00;100190.34;10404244;28;20448;-76
2023/03/06 07:58:27;;;;;;;0.05;0.05;;;;;;;3.63;100.00;100200.97;10396870;28;20049;-76
2023/03/06 08:03:29;;;;;;;0.55;0.50;;;;;;;3.62;100.00;100215.41;10421380;28;20310;-76
2023/03/06 08:08:33;;;;;;;0.25;0.25;;;;;;;3.87;100.00;100226.63;10413207;28;20140;-76
2023/03/06 08:13:35;;;;;;;1.20;0.70;;;;;;;3.96;100.00;100223.59;10410270;28;20050;-76
2023/03/06 08:18:38;;;;;;;0.00;0.00;;;;;;;3.70;100.00;100238.66;10410967;28;20037;-76
2023/03/06 08:23:42;;;;;;;1.15;1.05;;;;;;;4.22;100.00;100239.09;10410886;28;20049;-76
2023/03/06 08:28:45;;;;;;;0.30;0.30;;;;;;;5.00;100.00;100254.06;10426065;28;20049;-76
2023/03/06 08:33:46;;;;;;;0.68;0.38;;;;;;;4.75;100.00;100304.16;10413600;28;20049;-76
2023/03/06 08:38:48;;;;;;;0.20;0.20;;;;;;;4.32;100.00;100317.72;10416784;28;20144;-77
2023/03/06 08:43:50;;;;;;;0.30;0.20;;;;;;;4.02;100.00;100317.31;10408420;28;20076;-77
2023/03/06 08:48:52;;;;;;;0.47;0.43;;;;;;;4.48;100.00;100328.56;10422941;28;20453;-77
2023/03/06 08:53:55;;;;;;;0.60;0.57;;;;;;;4.36;100.00;100332.31;10407867;28;20041;-77
2023/03/06 08:58:59;;;;;;;0.00;0.00;;;;;;;4.51;100.00;100333.78;10400669;28;20498;-77
2023/03/06 09:04:04;;;;;;;0.10;0.10;;;;;;;4.68;100.00;100353.22;10408915;28;20047;-77
2023/03/06 09:09:06;;;;;;;0.00;0.00;;;;;;;4.24;100.00;100364.97;10408567;28;20038;-78
2023/03/06 09:14:07;;;;;;;0.00;0.00;;;;;;;4.31;100.00;100366.13;10408449;28;20077;-77
2023/03/06 09:19:09;;;;;;;0.10;0.10;;;;;;;5.10;100.00;100371.88;10416249;28;20048;-77
2023/03/06 09:24:11;;;;;;;0.00;0.00;;;;;;;4.99;100.00;100387.63;10406552;28;20041;-77
2023/03/06 09:29:14;;;;;;;0.25;0.25;;;;;;;4.45;100.00;100376.09;10407723;28;20073;-77
2023/03/06 09:34:17;;;;;;;0.00;0.00;;;;;;;4.48;100.00;100390.63;10401350;28;20463;-77
2023/03/06 09:39:18;;;;;;;0.08;0.08;;;;;;;4.20;100.00;100393.72;10408670;28;20038;-77
2023/03/06 09:44:24;;;;;;;0.00;0.00;;;;;;;4.44;100.00;100387.09;10405660;28;20049;-78
2023/03/06 09:49:50;;;;;;;0.00;0.00;;;;;;;4.77;100.00;100401.19;10415244;28;20042;-77
2023/03/06 09:54:59;;;;;;;0.00;0.00;;;;;;;4.81;100.00;100420.94;10407470;28;20444;-77
2023/03/06 10:00:10;;;;;;;0.10;0.10;;;;;;;5.23;100.00;100426.03;10405233;28;20053;-78
2023/03/06 10:05:18;;;;;;;0.20;0.20;;;;;;;5.82;100.00;100435.09;10407658;28;20060;-77
2023/03/06 10:10:26;;;;;;;0.00;0.00;;;;;;;6.37;100.00;100412.38;10403477;28;20536;-77
2023/03/06 10:15:34;;;;;;;0.10;0.10;;;;;;;4.62;100.00;100444.81;10402582;28;20447;-76
2023/03/06 10:21:01;;;;;;;0.00;0.00;;;;;;;4.61;100.00;100468.59;10415517;28;20045;-76
2023/03/06 10:26:38;;;;;;;0.00;0.00;;;;;;;5.93;100.00;100487.50;10446656;28;20052;-77
2023/03/06 10:31:47;;;;;;;0.00;0.00;;;;;;;7.13;100.00;100500.28;10416058;28;20034;-77
2023/03/06 10:36:50;;;;;;;0.00;0.00;;;;;;;7.55;100.00;100505.09;10406959;28;20049;-77
2023/03/06 10:41:51;;;;;;;0.00;0.00;;;;;;;8.01;100.00;100522.69;10413935;28;20552;-77
2023/03/06 10:46:53;;;;;;;0.13;0.00;;;;;;;7.01;100.00;100543.44;10410742;28;20053;-76
2023/03/06 10:52:01;;;;;;;0.55;0.20;;;;;;;6.16;100.00;100525.88;10414925;28;20045;-76
2023/03/06 10:57:24;;;;;;;0.00;0.00;;;;;;;5.28;100.00;100530.09;10410750;28;20057;-76
2023/03/06 11:02:35;;;;;;;0.00;0.00;;;;;;;5.36;100.00;100549.16;10413214;28;20125;-77
2023/03/06 11:07:52;;;;;;;0.00;0.00;;;;;;;6.16;100.00;100551.47;10413469;28;20523;-76
2023/03/06 11:13:19;;;;;;;0.00;0.00;;;;;;;9.13;100.00;100560.97;10403319;28;20100;-78
2023/03/06 11:18:33;;;;;;;0.08;0.08;;;;;;;9.65;100.00;100560.53;10407838;28;20080;-78
2023/03/06 11:23:40;;;;;;;0.00;0.00;;;;;;;8.09;100.00;100570.00;10412914;28;20052;-77
2023/03/06 11:29:25;;;;;;;0.00;0.00;;;;;;;7.25;100.00;100562.22;10403060;28;20061;-77
2023/03/06 11:34:39;;;;;;;0.28;0.17;;;;;;;6.42;100.00;100569.50;10421751;28;20055;-77
2023/03/06 11:39:52;;;;;;;0.00;0.00;;;;;;;7.18;100.00;100555.16;10391443;28;20041;-76
2023/03/06 11:45:33;;;;;;;0.00;0.00;;;;;;;7.47;100.00;100548.41;10404745;28;20101;-77
2023/03/06 11:50:51;;;;;;;0.00;0.00;;;;;;;7.48;100.00;100539.03;10402248;28;20041;-77
2023/03/06 11:56:02;;;;;;;0.10;0.10;;;;;;;6.99;100.00;100551.06;10411181;28;20115;-77
2023/03/06 12:01:16;;;;;;;0.00;0.00;;;;;;;7.30;100.00;100540.16;10396287;28;20156;-76
2023/03/06 12:06:36;;;;;;;0.00;0.00;;;;;;;8.50;100.00;100528.44;10404659;28;20119;-77
2023/03/06 12:11:59;;;;;;;0.00;0.00;;;;;;;8.05;100.00;100522.00;10411267;28;20452;-76
2023/03/06 12:17:17;;;;;;;0.00;0.00;;;;;;;8.80;100.00;100527.53;10400742;28;20161;-77
2023/03/06 12:22:39;;;;;;;0.17;0.10;;;;;;;9.96;100.00;100504.66;10407913;28;20046;-77
2023/03/06 12:27:50;;;;;;;0.43;0.10;;;;;;;9.07;100.00;100509.41;10393029;28;20103;-77
2023/03/06 12:33:08;;;;;;;0.05;0.05;;;;;;;9.91;100.00;100493.41;10409406;28;20460;-77
2023/03/06 12:38:50;;;;;;;0.00;0.00;;;;;;;10.02;100.00;100488.47;10422714;28;20387;-75
2023/03/06 12:44:04;;;;;;;0.03;0.03;;;;;;;9.02;100.00;100495.59;10399004;28;20091;-76
2023/03/06 12:49:23;;;;;;;0.00;0.00;;;;;;;8.89;100.00;100490.16;10408695;28;20489;-76
2023/03/06 12:54:37;;;;;;;0.00;0.00;;;;;;;8.76;100.00;100482.06;10415383;28;20057;-77
2023/03/06 12:59:46;;;;;;;0.00;0.00;;;;;;;8.52;100.00;100480.56;10408310;28;20052;-77
2023/03/06 13:05:13;;;;;;;0.28;0.10;;;;;;;8.35;100.00;100467.25;10381789;28;20057;-76
2023/03/06 13:10:24;;;;;;;0.00;0.00;;;;;;;7.46;100.00;100471.47;10397903;28;20069;-77
2023/03/06 13:15:44;;;;;;;0.00;0.00;;;;;;;8.55;100.00;100463.56;10389776;28;20056;-77
2023/03/06 13:20:49;;;;;;;0.00;0.00;;;;;;;8.43;100.00;100452.94;10380034;28;20045;-77
2023/03/06 13:25:51;;;;;;;0.00;0.00;;;;;;;9.91;100.00;100436.78;10402566;28;20056;-77
2023/03/06 13:30:52;;;;;;;0.00;0.00;;;;;;;7.91;100.00;100437.81;10385325;28;20046;-76
2023/03/06 13:35:56;;;;;;;0.00;0.00;;;;;;;9.35;100.00;100422.69;10400812;28;20136;-77
2023/03/06 13:41:19;;;;;;;0.00;0.00;;;;;;;8.42;100.00;100428.94;10394815;28;20052;-77
2023/03/06 13:46:25;;;;;;;0.65;0.40;;;;;;;8.22;100.00;100420.72;10395842;28;20196;-77
2023/03/06 13:51:33;;;;;;;0.00;0.00;;;;;;;7.87;100.00;100415.44;10412166;28;20384;-76
2023/03/06 13:57:08;;;;;;;0.00;0.00;;;;;;;8.46;100.00;100411.91;10409531;28;20489;-77
2023/03/06 14:02:38;;;;;;;0.00;0.00;;;;;;;8.54;100.00;100414.75;10419417;28;20041;-76
2023/03/06 14:07:45;;;;;;;0.00;0.00;;;;;;;9.02;100.00;100408.22;10405090;28;20050;-76
2023/03/06 14:12:50;;;;;;;0.00;0.00;;;;;;;8.92;100.00;100396.88;10417132;28;20412;-75
2023/03/06 14:17:59;;;;;;;0.00;0.00;;;;;;;8.49;100.00;100395.78;10400118;28;20057;-76
2023/03/06 14:23:15;;;;;;;0.00;0.00;;;;;;;8.82;100.00;100390.63;10395228;28;20092;-75
2023/03/06 14:28:25;;;;;;;0.00;0.00;;;;;;;7.81;100.00;100379.34;10392615;28;20045;-76
2023/03/06 14:33:51;;;;;;;0.00;0.00;;;;;;;8.61;100.00;100364.38;10398531;28;20046;-76
2023/03/06 14:38:57;;;;;;;0.00;0.00;;;;;;;8.31;100.00;100368.75;10393003;28;20053;-76
2023/03/06 14:44:18;;;;;;;0.00;0.00;;;;;;;7.73;100.00;100355.19;10403166;28;20111;-76
2023/03/06 14:49:21;;;;;;;;;;;;;;;7.78;100.00;100359.63;10405983;28;20481;-76
2023/03/06 14:54:31;;;;;;;0.00;0.00;;;;;;;7.94;100.00;100345.53;10403208;28;19921;-75
2023/03/06 14:59:38;;;;;;;;;;;;;;;7.70;100.00;100342.28;10388110;28;20099;-76
2023/03/06 15:04:45;;;;;;;0.00;0.00;;;;;;;7.60;100.00;100343.69;10409003;28;19983;-76
2023/03/06 15:09:50;;;;;;;0.38;0.10;;;;;;;7.60;100.00;100344.59;10417510;28;20049;-76
2023/03/06 15:15:08;;;;;;;0.00;0.00;;;;;;;7.39;100.00;100326.88;10418139;28;20076;-76
2023/03/06 15:20:47;;;;;;;0.20;0.20;;;;;;;7.12;100.00;100330.34;10402702;28;20050;-76
2023/03/06 15:26:32;;;;;;;0.28;0.22;;;;;;;7.24;100.00;100319.63;10406286;28;20049;-76
2023/03/06 15:31:42;;;;;;;0.00;0.00;;;;;;;7.19;100.00;100316.03;10414601;28;20057;-76
2023/03/06 15:36:53;;;;;;;0.17;0.15;;;;;;;7.18;100.00;100306.63;10410984;28;20053;-76
2023/03/06 15:42:22;;;;;;;0.00;0.00;;;;;;;7.20;100.00;100302.41;10410238;28;20041;-75
2023/03/06 15:47:24;;;;;;;0.10;0.10;;;;;;;7.05;100.00;100299.38;10397679;28;20050;-76
2023/03/06 15:52:26;;;;;;;1.30;0.82;;;;;;;6.61;100.00;100290.34;10408859;28;20124;-76
2023/03/06 15:57:30;;;;;;;0.30;0.20;;;;;;;4.83;100.00;100319.78;10406924;28;20042;-75
2023/03/06 16:02:32;;;;;;;1.25;0.35;;;;;;;4.56;100.00;100276.19;10401320;28;20030;-76
2023/03/06 16:07:34;;;;;;;0.05;0.05;;;;;;;4.17;100.00;100254.19;10399299;28;20490;-76
2023/03/06 16:12:35;;;;;;;0.35;0.35;;;;;;;4.27;100.00;100207.88;10394446;28;20046;-76
2023/03/06 16:17:37;;;;;;;0.20;0.10;;;;;;;4.55;100.00;100172.38;10400816;28;20041;-76
2023/03/06 16:22:39;;;;;;;0.00;0.00;;;;;;;4.30;100.00;100181.63;10403016;28;20132;-76
2023/03/06 16:27:57;;;;;;;0.00;0.00;;;;;;;4.22;100.00;100153.28;10389167;28;20057;-76
2023/03/06 16:33:00;;;;;;;0.00;0.00;;;;;;;4.62;100.00;100151.41;10422496;28;20370;-76
2023/03/06 16:38:02;;;;;;;0.00;0.00;;;;;;;4.76;100.00;100152.78;10407719;28;20049;-75
2023/03/06 16:43:04;;;;;;;0.00;0.00;;;;;;;4.79;100.00;100161.38;10395118;28;20390;-76
2023/03/06 16:48:06;;;;;;;0.13;0.03;;;;;;;4.67;100.00;100162.63;10387713;28;20064;-75
2023/03/06 16:53:08;;;;;;;0.40;0.20;;;;;;;4.66;100.00;100158.34;10406588;28;20099;-76
2023/03/06 16:58:10;;;;;;;0.00;0.00;;;;;;;4.64;100.00;100137.03;10405922;28;20046;-76
2023/03/06 17:03:16;;;;;;;0.85;0.55;;;;;;;4.52;100.00;100128.88;10378275;28;20052;-76
2023/03/06 17:08:18;;;;;;;0.68;0.30;;;;;;;4.47;100.00;100123.59;10411015;28;20049;-75
2023/03/06 17:13:20;;;;;;;0.75;0.75;;;;;;;4.55;100.00;100114.56;10399397;28;20041;-76
2023/03/06 17:18:23;;;;;;;0.25;0.20;;;;;;;4.65;100.00;100118.34;10414015;28;20042;-76
2023/03/06 17:23:27;;;;;;;0.00;0.00;;;;;;;4.45;100.00;100100.59;10393963;28;20038;-76
2023/03/06 17:28:29;;;;;;;0.10;0.10;;;;;;;4.50;100.00;100098.22;10408906;28;20056;-74
2023/03/06 17:33:31;;;;;;;1.05;0.95;;;;;;;4.45;100.00;100107.41;10404254;28;20046;-77
2023/03/06 17:38:32;;;;;;;0.73;0.52;;;;;;;4.47;100.00;100117.66;10418962;28;20053;-77
2023/03/06 17:43:36;;;;;;;0.38;0.32;;;;;;;4.42;100.00;100130.22;10416211;28;20412;-77
2023/03/06 17:48:38;;;;;;;0.45;0.20;;;;;;;4.44;100.00;100126.06;10415113;28;20045;-76
2023/03/06 17:53:40;;;;;;;0.47;0.47;;;;;;;4.54;100.00;100119.63;10415904;28;20484;-76
2023/03/06 17:58:42;;;;;;;2.70;0.55;;;;;;;4.52;100.00;100100.81;10447685;28;20046;-75
2023/03/06 18:03:45;;;;;;;0.17;0.17;;;;;;;4.48;100.00;100089.63;10380220;28;20060;-75
2023/03/06 18:08:48;;;;;;;0.85;0.82;;;;;;;4.35;100.00;100075.59;10421094;28;20053;-77
2023/03/06 18:13:53;;;;;;;1.25;0.73;;;;;;;4.40;100.00;100050.22;10419336;28;20041;-76
2023/03/06 18:18:55;;;;;;;3.78;0.93;;;;;;;4.33;100.00;100038.94;10400642;28;20077;-76
2023/03/06 18:23:57;;;;;;;0.25;0.25;;;;;;;4.33;100.00;100028.75;10397847;28;20057;-76
2023/03/06 18:29:02;;;;;;;0.68;0.68;;;;;;;4.52;100.00;99980.94;10413748;28;20106;-76
2023/03/06 18:34:13;;;;;;;0.63;0.50;;;;;;;4.29;100.00;99951.25;10415584;28;20050;-77
2023/03/06 18:39:15;;;;;;;0.40;0.40;;;;;;;4.29;100.00;99900.25;10414398;28;20045;-74
2023/03/06 18:44:17;;;;;;;0.73;0.73;;;;;;;4.47;100.00;99880.44;10404409;28;20099;-76
2023/03/06 18:49:19;;;;;;;8.55;0.85;;;;;;;4.09;100.00;99860.47;10412024;28;20061;-75
2023/03/06 18:54:21;;;;;;;2.50;0.93;;;;;;;4.38;100.00;99825.75;10396493;28;20041;-77
2023/03/06 18:59:22;;;;;;;1.08;1.02;;;;;;;4.50;100.00;99817.66;10401627;28;20053;-77
2023/03/06 19:04:24;;;;;;;5.30;1.10;;;;;;;4.35;100.00;99797.63;10410321;28;20076;-78
2023/03/06 19:09:26;;;;;;;3.08;1.55;;;;;;;4.30;100.00;99794.03;10402774;28;20473;-76
2023/03/06 19:14:28;;;;;;;3.67;2.45;;;;;;;4.35;100.00;99787.41;10398895;28;20056;-77
2023/03/06 19:19:29;;;;;;;1.70;1.45;;;;;;;4.31;100.00;99790.66;10410771;28;20493;-76
2023/03/06 19:24:31;;;;;;;1.33;1.17;;;;;;;4.24;100.00;99798.94;10407467;28;20054;-77
2023/03/06 19:29:32;;;;;;;0.52;0.52;;;;;;;4.26;100.00;99798.16;10399106;28;20045;-77
2023/03/06 19:34:34;;;;;;;1.65;1.40;;;;;;;4.18;100.00;99804.69;10409441;28;20045;-76
2023/03/06 19:39:36;;;;;;;0.85;0.77;;;;;;;4.03;100.00;99807.59;10393536;28;20050;-76
2023/03/06 19:44:38;;;;;;;0.75;0.40;;;;;;;3.92;100.00;99806.31;10382533;28;20057;-76
2023/03/06 19:49:39;;;;;;;5.05;1.70;;;;;;;3.97;100.00;99809.91;10385270;28;20050;-76
2023/03/06 19:54:41;;;;;;;0.70;0.70;;;;;;;3.89;100.00;99806.22;10415199;28;20049;-76
2023/03/06 19:59:43;;;;;;;0.40;0.40;;;;;;;3.88;100.00;99804.50;10394612;28;20054;-76
2023/03/06 20:04:45;;;;;;;0.47;0.47;;;;;;;3.96;100.00;99798.00;10414990;28;20582;-76
2023/03/06 20:09:47;;;;;;;0.95;0.88;;;;;;;4.18;100.00;99786.81;10381910;28;20583;-76
2023/03/06 20:14:48;;;;;;;1.42;1.23;;;;;;;3.95;100.00;99786.91;10393668;28;20054;-76
2023/03/06 20:19:50;;;;;;;0.98;0.73;;;;;;;4.15;100.00;99763.81;10382553;28;20042;-76
2023/03/06 20:24:52;;;;;;;1.33;1.23;;;;;;;3.99;100.00;99757.31;10395504;28;20493;-76
2023/03/06 20:29:54;;;;;;;3.15;1.55;;;;;;;4.04;100.00;99766.00;10393247;28;20084;-77
2023/03/06 20:34:55;;;;;;;2.53;1.15;;;;;;;3.96;100.00;99752.97;10389922;28;20049;-76
2023/03/06 20:39:58;;;;;;;1.38;1.27;;;;;;;3.94;100.00;99758.84;10401612;28;20057;-76
2023/03/06 20:45:00;;;;;;;0.35;0.35;;;;;;;3.99;100.00;99744.56;10408534;28;20477;-76
2023/03/06 20:50:01;;;;;;;0.25;0.10;;;;;;;3.87;100.00;99733.97;10383582;28;20128;-77
2023/03/06 20:55:04;;;;;;;0.00;0.00;;;;;;;3.81;100.00;99732.94;10409720;28;20050;-76
2023/03/06 21:00:07;;;;;;;0.52;0.52;;;;;;;3.73;100.00;99723.28;10401734;28;20044;-76
2023/03/06 21:05:09;;;;;;;0.75;0.45;;;;;;;3.74;100.00;99708.06;10409489;28;20420;-76
2023/03/06 21:10:13;;;;;;;0.10;0.10;;;;;;;3.52;100.00;99695.41;10392257;28;20045;-76
2023/03/06 21:15:17;;;;;;;2.25;1.83;;;;;;;3.51;100.00;99666.50;10383396;28;20061;-76
2023/03/06 21:20:18;;;;;;;0.40;0.40;;;;;;;3.39;100.00;99651.66;10412283;28;20037;-76
2023/03/06 21:25:21;;;;;;;0.77;0.77;;;;;;;3.31;100.00;99631.06;10403741;28;20053;-81
2023/03/06 21:30:22;;;;;;;0.45;0.45;;;;;;;3.47;100.00;99609.53;10402569;28;20445;-81
2023/03/06 21:35:24;;;;;;;1.20;1.10;;;;;;;3.47;100.00;99585.75;10400806;28;20058;-81
2023/03/06 21:40:26;;;;;;;2.40;0.43;;;;;;;3.28;100.00;99572.38;10403258;28;20045;-80
2023/03/06 21:45:29;;;;;;;2.40;0.85;;;;;;;3.38;100.00;99565.94;10408034;28;20382;-81
2023/03/06 21:50:30;;;;;;;0.20;0.20;;;;;;;3.27;100.00;99544.34;10403124;28;20119;-80
2023/03/06 21:55:32;;;;;;;0.10;0.10;;;;;;;3.29;100.00;99525.75;10404278;28;20054;-80
2023/03/06 22:00:37;;;;;;;0.50;0.43;;;;;;;3.28;100.00;99513.84;10404380;28;20088;-80
2023/03/06 22:05:39;;;;;;;0.17;0.17;;;;;;;3.17;100.00;99498.22;10392667;28;20072;-81
2023/03/06 22:10:40;;;;;;;1.48;1.23;;;;;;;3.23;100.00;99486.53;10394355;28;20159;-80
2023/03/06 22:15:50;;;;;;;0.32;0.32;;;;;;;3.20;100.00;99459.31;10403597;28;20056;-80
2023/03/06 22:20:51;;;;;;;1.40;1.00;;;;;;;3.25;100.00;99445.03;10386257;28;20046;-80
2023/03/06 22:25:53;;;;;;;0.55;0.52;;;;;;;3.33;100.00;99418.16;10433783;28;20044;-79
2023/03/06 22:30:55;;;;;;;0.32;0.32;;;;;;;3.41;100.00;99410.72;10412998;28;20041;-81
2023/03/06 22:36:06;;;;;;;0.90;0.77;;;;;;;3.67;100.00;99382.66;10399414;28;20046;-81
2023/03/06 22:41:09;;;;;;;1.77;1.13;;;;;;;3.63;100.00;99370.63;10402463;28;20130;-81
2023/03/06 22:46:13;;;;;;;0.00;0.00;;;;;;;3.62;100.00;99353.59;10411076;28;20045;-81
2023/03/06 22:51:18;;;;;;;1.30;1.20;;;;;;;3.69;100.00;99324.94;10402063;28;20033;-81
2023/03/06 22:56:20;;;;;;;1.10;0.75;;;;;;;3.90;100.00;99295.81;10402844;28;20511;-78
2023/03/06 23:01:33;;;;;;;0.10;0.10;;;;;;;3.95;100.00;99281.50;10401584;28;20050;-77
2023/03/06 23:06:36;;;;;;;0.63;0.55;;;;;;;4.06;100.00;99289.44;10410210;28;20099;-77
2023/03/06 23:11:38;;;;;;;0.17;0.17;;;;;;;4.08;100.00;99278.44;10409317;28;20049;-77
2023/03/06 23:16:58;;;;;;;0.20;0.20;;;;;;;4.17;100.00;99287.16;10394517;28;20053;-77
2023/03/06 23:22:19;;;;;;;0.55;0.55;;;;;;;4.27;100.00;99273.84;10412472;28;20045;-77
2023/03/06 23:27:39;;;;;;;0.20;0.20;;;;;;;4.36;100.00;99268.09;10418543;28;20053;-77
2023/03/06 23:32:43;;;;;;;2.85;0.93;;;;;;;4.34;100.00;99265.50;10395021;28;20486;-77